Corpus Christi, TX

9:20 PM CDT on June 26, 2017 (GMT -0500)
Weber at SPID | | Change Station

Elev 33 ft 27.72 °N, 97.40 °W | Updated 34 seconds ago

Partly Cloudy
Partly Cloudy
82.6 °F
Feels Like 89 °F
N
1.7
Wind Variable Wind from SE

Today
High -- | Low -- °F
--% Chance of Precip.
Yesterday
High -- | Low -- °F
Precip. -- in
Pressure 29.96 in
Visibility 10.0 miles
Clouds Few 2600 ft
Few 10000 ft
Scattered Clouds 15000 ft
Mostly Cloudy 20000 ft
Heat Index 89 °F
Dew Point 75 °F
Humidity 77%
Rainfall 0.00 in
Snow Depth Not available.
6:35 AM 8:29 PM
Waxing Crescent, 12% visible
METAR KCRP 270151Z 10007KT 10SM FEW026TCU FEW100 SCT150 BKN200 29/23 A2997 RMK AO2 SLP146 TCU S T02890233
Pressure 29.96 in
Visibility 10.0 miles
Clouds Few 2600 ft
Few 10000 ft
Scattered Clouds 15000 ft
Mostly Cloudy 20000 ft
Heat Index 89 °F
Dew Point 75 °F
Humidity 77%
Rainfall 0.00 in
Snow Depth Not available.
6:35 AM 8:29 PM
Waxing Crescent, 12% visible
METAR KCRP 270151Z 10007KT 10SM FEW026TCU FEW100 SCT150 BKN200 29/23 A2997 RMK AO2 SLP146 TCU S T02890233

Get Severe Weather Alerts

Thanks for signing up!

Be on the lookout for a verification email in your inbox.

You'll start receiving the daily forecast at 6 AM.

×

10-Day Weather Forecast

Almanac

Astronomy

Jun. 26, 2017 Rise Set
Actual Time
Civil Twilight
Nautical Twilight
Astronomical Twilight
Moon
Length of Visible Light
Length of Day
Tomorrow will be .
, % of the Moon is Illuminated

Today's Extremes

State Highs State Lows

Community

WunderPhotos

Category 6

Welcome to Category 6. This is the collective home for Weather Underground's featured writeups by Dr. Jeff Masters (right), Bob Henson (left), Chris Burt, and other regular contributors.

Nearby

Air Quality

  Air Quality AQ Index Pollutant
Not available.

Snow Depth

Station Depth Elevation

Earthquake Activity

City Distance Mag. Time & Date
Minimum magnitude displayed is 2.5.

Coastal Water Temperatures

Place Temperature

Stations

Nearby Weather Stations

Station Location Temp. Windchill Dew Point Humidity Wind Precip. Elev Updated Type
                   

Watches & Warnings

There are currently no watches in effect.